createdAt,value
2022-11-24T00:01:10.844Z,5.80
2022-11-24T00:04:34.001Z,5.90
2022-11-24T00:07:55.846Z,5.90
2022-11-24T00:11:18.818Z,5.90
2022-11-24T00:14:40.395Z,6.00
2022-11-24T00:18:01.955Z,6.20
2022-11-24T00:21:25.714Z,6.30
2022-11-24T00:24:47.336Z,6.40
2022-11-24T00:28:08.899Z,6.50
2022-11-24T00:31:31.421Z,6.50
2022-11-24T00:34:53.050Z,6.40
2022-11-24T00:38:15.980Z,6.30
2022-11-24T00:41:37.712Z,6.20
2022-11-24T00:44:59.306Z,6.20
2022-11-24T00:48:21.668Z,6.20
2022-11-24T00:51:43.249Z,6.10
2022-11-24T00:55:06.672Z,6.10
2022-11-24T00:58:28.252Z,6.00
2022-11-24T01:01:49.879Z,5.90
2022-11-24T01:05:13.244Z,5.70
2022-11-24T01:08:36.149Z,5.60
2022-11-24T01:11:59.109Z,5.40
2022-11-24T01:15:20.684Z,5.30
2022-11-24T01:18:42.339Z,5.30
2022-11-24T01:22:03.935Z,5.20
2022-11-24T01:25:25.510Z,5.10
2022-11-24T01:28:52.173Z,5.10
2022-11-24T01:32:13.791Z,5.00
2022-11-24T01:35:36.212Z,4.90
2022-11-24T01:38:57.821Z,4.90
2022-11-24T01:42:19.472Z,4.90
2022-11-24T01:45:42.507Z,4.80
2022-11-24T01:49:09.135Z,4.70
2022-11-24T01:52:33.544Z,4.70
2022-11-24T01:55:55.179Z,4.70
2022-11-24T01:59:18.716Z,4.60
2022-11-24T02:02:42.444Z,4.80
2022-11-24T02:06:05.878Z,5.00
2022-11-24T02:09:30.677Z,5.20
2022-11-24T02:12:54.251Z,5.40
2022-11-24T02:16:15.911Z,5.50
2022-11-24T02:19:42.980Z,5.60
2022-11-24T02:23:09.675Z,5.60
2022-11-24T02:26:39.020Z,5.70
2022-11-24T02:30:00.714Z,5.70
2022-11-24T02:33:22.417Z,5.70
2022-11-24T02:36:44.036Z,5.70
2022-11-24T02:40:06.349Z,5.70
2022-11-24T02:43:30.620Z,5.70
2022-11-24T02:47:01.123Z,5.70
2022-11-24T02:50:22.796Z,5.70
2022-11-24T02:53:44.399Z,5.50
2022-11-24T02:57:05.982Z,5.50
2022-11-24T03:00:28.914Z,5.40
2022-11-24T03:03:50.500Z,5.30
2022-11-24T03:07:12.163Z,5.30
2022-11-24T03:10:33.776Z,5.10
2022-11-24T03:13:55.348Z,5.00
2022-11-24T03:17:18.305Z,5.00
2022-11-24T03:20:39.889Z,5.00
2022-11-24T03:24:01.456Z,5.00
2022-11-24T03:27:23.033Z,4.90
2022-11-24T03:30:44.682Z,4.90
2022-11-24T03:34:07.743Z,4.90
2022-11-24T03:37:29.411Z,5.00
2022-11-24T03:40:51.004Z,5.10
2022-11-24T03:44:12.750Z,5.20
2022-11-24T03:47:34.320Z,5.30
2022-11-24T03:50:58.200Z,5.40
2022-11-24T03:54:19.766Z,5.50
2022-11-24T03:57:41.344Z,5.50
2022-11-24T04:01:03.187Z,5.60
2022-11-24T04:04:24.771Z,5.70
2022-11-24T04:07:47.722Z,5.70
2022-11-24T04:11:09.318Z,5.70
2022-11-24T04:14:31.048Z,5.60
2022-11-24T04:17:54.181Z,5.50
2022-11-24T04:21:17.950Z,5.40
2022-11-24T04:24:40.855Z,5.40
2022-11-24T04:28:02.519Z,5.30
2022-11-24T04:31:24.170Z,5.30
2022-11-24T04:34:45.875Z,5.40
2022-11-24T04:38:07.462Z,5.60
2022-11-24T04:41:30.395Z,5.70
2022-11-24T04:44:51.994Z,5.80
2022-11-24T04:48:13.578Z,5.70
2022-11-24T04:51:35.158Z,5.60
2022-11-24T04:54:56.749Z,5.60
2022-11-24T04:58:19.697Z,5.50
2022-11-24T05:01:41.519Z,5.50
2022-11-24T05:05:03.282Z,5.50
2022-11-24T05:08:25.107Z,5.50
2022-11-24T05:11:46.680Z,5.50
2022-11-24T05:15:10.395Z,5.40
2022-11-24T05:18:32.010Z,5.40
2022-11-24T05:21:53.571Z,5.40
2022-11-24T05:25:15.224Z,5.30
2022-11-24T05:28:36.798Z,5.20
2022-11-24T05:31:59.747Z,5.20
2022-11-24T05:35:21.351Z,5.10
2022-11-24T05:38:42.935Z,5.10
2022-11-24T05:42:05.696Z,5.10
2022-11-24T05:45:27.310Z,5.10
2022-11-24T05:48:50.383Z,5.10
2022-11-24T05:52:11.995Z,5.10
2022-11-24T05:55:33.581Z,5.10
2022-11-24T05:58:55.167Z,5.00
2022-11-24T06:02:16.855Z,5.10
2022-11-24T06:05:39.800Z,5.00
2022-11-24T06:09:01.391Z,5.00
2022-11-24T06:12:23.037Z,5.00
2022-11-24T06:15:44.611Z,5.10
2022-11-24T06:19:06.208Z,5.30
2022-11-24T06:22:29.160Z,5.40
2022-11-24T06:25:51.732Z,5.50
2022-11-24T06:29:13.392Z,5.60
2022-11-24T06:32:35.014Z,5.60
2022-11-24T06:35:58.789Z,5.60
2022-11-24T06:39:21.736Z,5.60
2022-11-24T06:42:49.503Z,5.60
2022-11-24T06:46:11.714Z,5.60
2022-11-24T06:49:33.867Z,5.70
2022-11-24T06:52:55.475Z,5.70
2022-11-24T06:56:19.340Z,5.70
2022-11-24T06:59:41.067Z,5.80
2022-11-24T07:03:02.740Z,5.90
2022-11-24T07:06:25.279Z,5.90
2022-11-24T07:09:46.865Z,5.90
2022-11-24T07:13:09.824Z,5.90
2022-11-24T07:16:31.630Z,5.90
2022-11-24T07:19:53.312Z,5.90
2022-11-24T07:23:14.896Z,5.90
2022-11-24T07:26:36.477Z,6.00
2022-11-24T07:29:59.401Z,6.00
2022-11-24T07:33:21.038Z,6.10
2022-11-24T07:36:42.798Z,6.20
2022-11-24T07:40:05.332Z,6.20
2022-11-24T07:43:26.975Z,6.30
2022-11-24T07:46:50.084Z,6.40
2022-11-24T07:50:12.068Z,6.50
2022-11-24T07:53:34.081Z,6.50
2022-11-24T07:56:55.893Z,6.50
2022-11-24T08:00:17.929Z,6.60
2022-11-24T08:03:41.179Z,6.60
2022-11-24T08:07:02.870Z,6.60
2022-11-24T08:10:24.435Z,6.60
2022-11-24T08:13:46.128Z,6.70
2022-11-24T08:17:07.715Z,6.70
2022-11-24T08:20:30.681Z,6.80
2022-11-24T08:23:53.739Z,6.80
2022-11-24T08:27:15.636Z,6.70
2022-11-24T08:30:37.258Z,6.70
2022-11-24T08:33:59.386Z,6.70
2022-11-24T08:37:22.302Z,6.70
2022-11-24T08:40:43.902Z,6.80
2022-11-24T08:44:05.621Z,6.80
2022-11-24T08:47:27.220Z,6.80
2022-11-24T08:50:48.795Z,6.90
2022-11-24T08:54:11.750Z,6.90
2022-11-24T08:57:33.338Z,6.90
2022-11-24T09:00:55.236Z,6.90
2022-11-24T09:04:17.015Z,6.90
2022-11-24T09:07:38.672Z,6.90
2022-11-24T09:11:02.202Z,6.90
2022-11-24T09:14:23.807Z,7.10
2022-11-24T09:17:45.515Z,7.20
2022-11-24T09:21:07.629Z,7.40
2022-11-24T09:24:29.214Z,7.60
2022-11-24T09:27:52.159Z,7.70
2022-11-24T09:31:14.783Z,7.70
2022-11-24T09:34:36.394Z,7.70
2022-11-24T09:37:57.967Z,7.70
2022-11-24T09:41:23.340Z,7.70
2022-11-24T09:45:06.232Z,7.70
2022-11-24T09:48:30.283Z,7.70
2022-11-24T09:51:52.705Z,7.80
2022-11-24T09:55:28.083Z,7.80
2022-11-24T09:58:51.085Z,7.70
2022-11-24T10:02:14.053Z,7.70
2022-11-24T10:05:36.065Z,7.80
2022-11-24T10:09:07.662Z,8.00
2022-11-24T10:12:33.765Z,8.30
2022-11-24T10:15:59.120Z,8.60
2022-11-24T10:19:36.920Z,8.80
2022-11-24T10:23:06.160Z,9.00
2022-11-24T10:26:32.881Z,8.90
2022-11-24T10:29:55.181Z,8.60
2022-11-24T10:33:17.917Z,8.40
2022-11-24T10:36:43.853Z,8.50
2022-11-24T10:40:17.241Z,8.60
2022-11-24T10:43:51.883Z,8.80
2022-11-24T10:47:17.105Z,8.90
2022-11-24T10:50:40.807Z,8.90
2022-11-24T10:54:06.742Z,9.20
2022-11-24T10:57:29.803Z,9.40
2022-11-24T11:00:51.382Z,9.50
2022-11-24T11:04:18.181Z,9.30
2022-11-24T11:07:39.818Z,9.10
2022-11-24T11:11:12.396Z,9.10
2022-11-24T11:14:34.529Z,9.10
2022-11-24T11:17:57.404Z,9.10
2022-11-24T11:21:26.767Z,9.20
2022-11-24T11:25:01.087Z,9.40
2022-11-24T11:28:27.894Z,9.30
2022-11-24T11:35:38.594Z,9.10
2022-11-24T11:39:00.512Z,9.00
2022-11-24T11:42:59.945Z,9.20
2022-11-24T11:46:11.683Z,9.50
2022-11-24T11:49:33.521Z,9.80
2022-11-24T11:53:05.055Z,10.00
2022-11-24T11:56:28.164Z,10.10
2022-11-24T11:59:58.663Z,10.00
2022-11-24T12:03:34.956Z,9.90
2022-11-24T12:07:01.511Z,9.90
2022-11-24T12:10:28.487Z,9.90
2022-11-24T12:14:10.769Z,10.00
2022-11-24T12:17:33.284Z,10.20
2022-11-24T12:21:01.909Z,10.20
2022-11-24T12:24:27.817Z,10.30
2022-11-24T12:27:52.935Z,10.20
2022-11-24T12:31:17.347Z,10.20
2022-11-24T12:34:43.928Z,10.00
2022-11-24T12:38:12.935Z,10.10
2022-11-24T12:41:46.091Z,10.10
2022-11-24T12:45:12.027Z,10.10
2022-11-24T12:48:40.443Z,10.00
2022-11-24T12:52:04.505Z,10.10
2022-11-24T12:55:28.222Z,10.10
2022-11-24T12:58:52.450Z,10.10
2022-11-24T13:02:21.127Z,10.10
2022-11-24T13:05:45.877Z,10.20
2022-11-24T13:09:08.292Z,10.40
2022-11-24T13:12:31.252Z,10.50
2022-11-24T13:20:14.278Z,10.70
2022-11-24T13:23:36.542Z,10.70
2022-11-24T13:27:16.659Z,10.50
2022-11-24T13:30:53.234Z,10.30
2022-11-24T13:34:29.817Z,10.10
2022-11-24T13:37:52.748Z,10.00
2022-11-24T13:41:38.529Z,10.10
2022-11-24T13:45:00.565Z,10.20
2022-11-24T13:48:41.033Z,10.30
2022-11-24T13:52:17.508Z,10.30
2022-11-24T13:55:40.888Z,10.30
2022-11-24T13:59:14.472Z,10.20
2022-11-24T14:02:36.138Z,10.10
2022-11-24T14:05:58.667Z,10.10
2022-11-24T14:09:23.059Z,10.00
2022-11-24T14:12:46.011Z,9.90
2022-11-24T14:16:13.883Z,9.80
2022-11-24T14:19:35.540Z,9.80
2022-11-24T14:22:57.149Z,9.90
2022-11-24T14:26:19.920Z,9.80
2022-11-24T14:29:54.424Z,9.70
2022-11-24T14:33:18.497Z,9.50
2022-11-24T14:36:40.450Z,9.30
2022-11-24T14:40:02.038Z,9.20
2022-11-24T14:43:25.892Z,9.10
2022-11-24T14:46:49.063Z,9.00
2022-11-24T14:50:11.976Z,8.90
2022-11-24T14:53:34.021Z,8.80
2022-11-24T14:56:56.496Z,8.70
2022-11-24T15:00:19.350Z,8.60
2022-11-24T15:03:42.350Z,8.50
2022-11-24T15:07:07.371Z,8.40
2022-11-24T15:10:34.179Z,8.40
2022-11-24T15:13:55.857Z,8.40
2022-11-24T15:17:19.338Z,8.40
2022-11-24T15:20:44.940Z,8.30
2022-11-24T15:24:13.718Z,8.20
2022-11-24T15:27:36.234Z,8.20
2022-11-24T15:30:59.858Z,8.00
2022-11-24T15:34:22.069Z,7.90
2022-11-24T15:37:45.029Z,7.80
2022-11-24T15:41:13.914Z,7.60
2022-11-24T15:44:35.781Z,7.50
2022-11-24T15:47:57.571Z,7.40
2022-11-24T15:51:19.351Z,7.30
2022-11-24T15:54:42.351Z,7.10
2022-11-24T15:58:03.943Z,7.00
2022-11-24T16:01:28.549Z,6.90
2022-11-24T16:04:50.384Z,6.70
2022-11-24T16:08:12.892Z,6.60
2022-11-24T16:11:35.821Z,6.40
2022-11-24T16:15:02.577Z,6.30
2022-11-24T16:18:24.148Z,6.20
2022-11-24T16:21:47.244Z,6.10
2022-11-24T16:25:09.027Z,5.90
2022-11-24T16:28:32.298Z,5.80
2022-11-24T16:31:54.190Z,5.70
2022-11-24T16:35:15.914Z,5.70
2022-11-24T16:38:38.820Z,5.70
2022-11-24T16:42:00.504Z,5.80
2022-11-24T16:45:23.594Z,5.90
2022-11-24T16:48:45.686Z,5.90
2022-11-24T16:52:07.371Z,5.80
2022-11-24T16:55:29.078Z,5.80
2022-11-24T16:58:50.817Z,5.70
2022-11-24T17:02:14.103Z,5.60
2022-11-24T17:05:35.771Z,5.50
2022-11-24T17:08:57.373Z,5.50
2022-11-24T17:12:19.043Z,5.70
2022-11-24T17:15:46.204Z,5.80
2022-11-24T17:19:11.446Z,5.80
2022-11-24T17:22:33.031Z,5.70
2022-11-24T17:26:00.445Z,5.60
2022-11-24T17:29:23.285Z,5.50
2022-11-24T17:32:44.855Z,5.30
2022-11-24T17:36:08.369Z,5.20
2022-11-24T17:39:30.025Z,5.10
2022-11-24T17:42:51.610Z,5.00
2022-11-24T17:46:13.242Z,4.90
2022-11-24T17:49:34.949Z,4.80
2022-11-24T17:52:57.890Z,4.70
2022-11-24T17:56:20.526Z,4.70
2022-11-24T17:59:42.212Z,4.60
2022-11-24T18:03:04.091Z,4.70
2022-11-24T18:06:25.872Z,4.70
2022-11-24T18:09:48.826Z,4.70
2022-11-24T18:13:22.299Z,4.70
2022-11-24T18:16:52.066Z,4.80
2022-11-24T18:20:13.851Z,4.80
2022-11-24T18:23:35.538Z,4.80
2022-11-24T18:26:58.589Z,4.80
2022-11-24T18:30:20.285Z,4.90
2022-11-24T18:33:42.511Z,4.90
2022-11-24T18:37:04.079Z,4.80
2022-11-24T18:40:25.794Z,4.80
2022-11-24T18:43:48.741Z,4.70
2022-11-24T18:47:10.323Z,4.50
2022-11-24T18:50:31.910Z,4.40
2022-11-24T18:53:54.008Z,4.40
2022-11-24T18:57:15.975Z,4.30
2022-11-24T19:00:39.227Z,4.20
2022-11-24T19:04:01.436Z,4.10
2022-11-24T19:07:23.070Z,4.10
2022-11-24T19:10:44.711Z,4.20
2022-11-24T19:14:07.226Z,4.30
2022-11-24T19:17:30.191Z,4.30
2022-11-24T19:20:51.762Z,4.40
2022-11-24T19:24:13.422Z,4.40
2022-11-24T19:27:35.021Z,4.50
2022-11-24T19:30:59.421Z,4.50
2022-11-24T19:34:22.353Z,4.50
2022-11-24T19:37:43.975Z,4.50
2022-11-24T19:41:06.586Z,4.30
2022-11-24T19:44:28.188Z,4.30
2022-11-24T19:47:49.763Z,4.20
2022-11-24T19:51:13.537Z,4.10
2022-11-24T19:54:35.446Z,4.00
2022-11-24T19:57:57.439Z,3.80
2022-11-24T20:01:20.534Z,3.60
2022-11-24T20:04:42.235Z,3.50
2022-11-24T20:08:05.334Z,3.40
2022-11-24T20:11:27.332Z,3.40
2022-11-24T20:14:48.932Z,3.30
2022-11-24T20:18:10.563Z,3.30
2022-11-24T20:21:32.389Z,3.20
2022-11-24T20:24:55.377Z,3.20
2022-11-24T20:28:17.471Z,3.10
2022-11-24T20:31:40.140Z,3.10
2022-11-24T20:35:01.784Z,3.10
2022-11-24T20:38:23.394Z,3.10
2022-11-24T20:41:46.622Z,3.10
2022-11-24T20:45:08.297Z,3.10
2022-11-24T20:48:30.284Z,3.10
2022-11-24T20:51:52.055Z,3.10
2022-11-24T20:55:13.708Z,3.10
2022-11-24T20:58:37.132Z,3.10
2022-11-24T21:01:58.974Z,3.10
2022-11-24T21:05:20.592Z,3.10
2022-11-24T21:08:42.399Z,3.10
2022-11-24T21:12:04.445Z,3.10
2022-11-24T21:15:27.735Z,3.00
2022-11-24T21:18:50.877Z,2.90
2022-11-24T21:22:12.467Z,2.80
2022-11-24T21:25:34.041Z,2.70
2022-11-24T21:28:56.275Z,2.70
2022-11-24T21:32:19.220Z,2.60
2022-11-24T21:35:40.858Z,2.60
2022-11-24T21:39:03.151Z,2.60
2022-11-24T21:42:24.874Z,2.60
2022-11-24T21:45:46.522Z,2.50
2022-11-24T21:49:09.503Z,2.40
2022-11-24T21:52:31.079Z,2.30
2022-11-24T21:55:55.682Z,2.30
2022-11-24T21:59:19.421Z,2.30
2022-11-24T22:02:41.185Z,2.20
2022-11-24T22:06:04.527Z,2.20
2022-11-24T22:09:26.100Z,2.20
2022-11-24T22:12:47.688Z,2.20
2022-11-24T22:16:10.481Z,2.30
2022-11-24T22:19:32.096Z,2.20
2022-11-24T22:22:55.023Z,2.20
2022-11-24T22:26:18.515Z,2.20
2022-11-24T22:29:40.087Z,2.20
2022-11-24T22:33:01.669Z,2.10
2022-11-24T22:36:23.961Z,2.10
2022-11-24T22:39:46.878Z,2.00
2022-11-24T22:43:08.462Z,2.00
2022-11-24T22:46:30.611Z,2.00
2022-11-24T22:49:52.189Z,1.90
2022-11-24T22:53:13.757Z,1.90
2022-11-24T22:56:36.696Z,1.90
2022-11-24T22:59:58.278Z,1.80
2022-11-24T23:03:19.902Z,1.80
2022-11-24T23:06:41.756Z,1.80
2022-11-24T23:10:03.465Z,1.90
2022-11-24T23:13:26.393Z,1.90
2022-11-24T23:16:48.020Z,1.90
2022-11-24T23:20:10.258Z,1.90
2022-11-24T23:23:31.845Z,1.90
2022-11-24T23:26:53.432Z,1.90
2022-11-24T23:30:16.511Z,1.80
2022-11-24T23:33:38.101Z,1.80
2022-11-24T23:36:59.694Z,1.80
2022-11-24T23:40:21.289Z,1.80
2022-11-24T23:43:42.961Z,1.80
2022-11-24T23:47:05.958Z,1.90
2022-11-24T23:50:27.766Z,1.80
2022-11-24T23:53:49.718Z,1.90
2022-11-24T23:57:11.277Z,2.00
